Time;durP1;ratioP1;P1;durP2;ratioP2;P2;SDS_P1;SDS_P2;PMS_P1;PMS_P2;Temp;Humidity;BMP_temperature;BMP_pressure;BME280_temperature;BME280_humidity;BME280_pressure;Samples;Min_cycle;Max_cycle;Signal;HPM_P1;HPM_P2
2022/04/13 00:01:35;;;;;;;8.90;5.00;;;;;;;9.56;59.51;99902.91;5054191;28;20249;-61
2022/04/13 00:04:01;;;;;;;5.67;5.13;;;;;;;9.46;60.09;99908.47;5054050;28;20192;-61
2022/04/13 00:06:28;;;;;;;6.70;5.33;;;;;;;9.36;59.61;99904.41;5053417;28;20654;-61
2022/04/13 00:08:56;;;;;;;5.33;4.93;;;;;;;9.36;61.06;99907.88;5054041;28;20188;-61
2022/04/13 00:11:22;;;;;;;5.47;5.13;;;;;;;9.13;61.75;99906.22;5054197;28;20279;-61
2022/04/13 00:13:49;;;;;;;5.47;4.97;;;;;;;9.10;60.96;99901.28;5054782;28;20324;-61
2022/04/13 00:16:17;;;;;;;5.57;5.00;;;;;;;9.03;60.89;99895.84;5054495;28;20243;-61
2022/04/13 00:18:44;;;;;;;5.83;5.33;;;;;;;9.05;61.86;99898.34;5053730;28;20246;-61
2022/04/13 00:21:11;;;;;;;6.13;5.57;;;;;;;9.05;62.07;99896.53;5053656;28;20558;-61
2022/04/13 00:23:37;;;;;;;5.47;4.93;;;;;;;9.10;61.65;99901.28;5053707;28;20573;-61
2022/04/13 00:26:04;;;;;;;4.87;4.57;;;;;;;9.17;62.58;99907.53;5054702;28;20274;-61
2022/04/13 00:28:31;;;;;;;5.37;4.97;;;;;;;9.18;62.63;99903.88;5053980;28;20193;-61
2022/04/13 00:30:57;;;;;;;5.83;5.37;;;;;;;9.14;62.98;99899.91;5053555;28;20219;-61
2022/04/13 00:33:26;;;;;;;5.33;5.03;;;;;;;9.14;62.53;99913.16;5053556;28;20662;-61
2022/04/13 00:35:54;;;;;;;5.83;5.03;;;;;;;9.10;61.92;99896.81;5053469;28;20263;-60
2022/04/13 00:38:22;;;;;;;6.60;6.13;;;;;;;9.07;62.76;99901.66;5053466;28;20205;-61
2022/04/13 00:40:49;;;;;;;8.10;6.50;;;;;;;9.05;63.94;99903.63;5053759;28;20258;-60
2022/04/13 00:43:16;;;;;;;19.20;12.43;;;;;;;9.09;63.47;99899.63;5053359;28;20197;-60
2022/04/13 00:45:45;;;;;;;50.33;28.60;;;;;;;9.11;63.80;99898.44;5054378;28;20220;-60
2022/04/13 00:48:20;;;;;;;46.60;26.30;;;;;;;9.11;64.32;99900.31;5053647;28;20254;-60
2022/04/13 00:50:48;;;;;;;52.67;28.20;;;;;;;9.02;63.63;99896.03;5053866;28;20246;-61
2022/04/13 00:53:16;;;;;;;52.17;28.33;;;;;;;9.01;63.78;99899.69;5053447;28;20196;-61
2022/04/13 00:55:44;;;;;;;68.30;30.93;;;;;;;8.90;63.66;99895.63;5053115;28;20254;-60
2022/04/13 00:58:13;;;;;;;71.97;31.77;;;;;;;8.85;63.99;99897.97;5053311;28;20259;-60
2022/04/13 01:00:48;;;;;;;61.73;28.13;;;;;;;8.75;64.87;99896.56;5053327;28;20280;-60
2022/04/13 01:03:16;;;;;;;50.57;22.30;;;;;;;8.73;64.80;99899.38;5053108;28;20193;-60
2022/04/13 01:05:44;;;;;;;20.77;12.93;;;;;;;8.66;64.11;99892.31;5053276;28;20216;-61
2022/04/13 01:08:13;;;;;;;40.07;19.33;;;;;;;8.66;65.09;99892.31;5052916;28;20669;-61
2022/04/13 01:10:41;;;;;;;24.77;15.20;;;;;;;8.71;65.10;99889.97;5052868;28;20197;-61
2022/04/13 01:13:08;;;;;;;12.40;7.93;;;;;;;8.73;65.55;99901.19;5052841;28;20196;-61
2022/04/13 01:15:36;;;;;;;8.00;7.27;;;;;;;8.72;64.56;99894.25;5053173;28;20232;-61
2022/04/13 01:18:03;;;;;;;6.90;6.20;;;;;;;8.75;65.20;99891.25;5052333;28;20192;-60
2022/04/13 01:20:30;;;;;;;7.37;6.73;;;;;;;8.76;64.70;99904.34;5052640;28;20193;-61
2022/04/13 01:22:58;;;;;;;10.73;8.67;;;;;;;8.73;64.32;99898.53;5053435;28;20188;-61
2022/04/13 01:25:25;;;;;;;17.03;12.60;;;;;;;8.65;65.11;99888.00;5052815;28;20315;-60
2022/04/13 01:27:52;;;;;;;19.80;11.50;;;;;;;8.65;65.05;99890.63;5052562;28;20250;-60
2022/04/13 01:30:18;;;;;;;14.30;9.03;;;;;;;8.63;66.07;99895.28;5052468;28;20665;-60
2022/04/13 01:32:45;;;;;;;7.97;7.00;;;;;;;8.53;64.72;99892.06;5052390;28;20192;-60
2022/04/13 01:35:12;;;;;;;8.07;6.97;;;;;;;8.32;64.63;99905.03;5052389;28;20682;-60
2022/04/13 01:37:38;;;;;;;6.80;6.33;;;;;;;8.24;65.44;99886.53;5052877;28;20286;-60
2022/04/13 01:40:08;;;;;;;9.13;7.03;;;;;;;8.16;65.67;99892.66;5052620;28;20196;-60
2022/04/13 01:42:34;;;;;;;6.80;6.30;;;;;;;8.07;66.50;99887.56;5052250;28;20656;-60
2022/04/13 01:45:01;;;;;;;7.23;6.60;;;;;;;8.06;66.94;99891.22;5052170;28;20224;-60
2022/04/13 01:47:28;;;;;;;7.00;6.60;;;;;;;8.05;67.07;99886.91;5052231;28;20192;-60
2022/04/13 01:49:55;;;;;;;7.27;6.77;;;;;;;7.87;66.87;99888.94;5052133;28;20188;-60
2022/04/13 01:52:22;;;;;;;10.00;6.70;;;;;;;7.71;67.51;99889.81;5052425;28;20195;-60
2022/04/13 01:54:49;;;;;;;7.00;6.50;;;;;;;7.58;67.61;99886.03;5052079;28;20193;-60
2022/04/13 01:57:17;;;;;;;7.33;6.73;;;;;;;7.50;68.13;99883.38;5052582;28;20193;-60
2022/04/13 01:59:43;;;;;;;7.40;6.70;;;;;;;7.47;68.41;99881.91;5052235;28;20629;-60
2022/04/13 02:02:11;;;;;;;7.10;6.60;;;;;;;7.46;68.15;99884.72;5052228;28;20196;-60
2022/04/13 02:04:37;;;;;;;7.63;7.10;;;;;;;7.44;68.05;99881.41;5052224;28;20203;-60
2022/04/13 02:07:04;;;;;;;7.70;7.00;;;;;;;7.44;68.93;99887.53;5051825;28;20790;-61
2022/04/13 02:09:31;;;;;;;6.30;5.90;;;;;;;7.40;69.08;99888.03;5051852;28;20746;-60
2022/04/13 02:11:58;;;;;;;7.50;6.80;;;;;;;7.43;69.16;99890.34;5051837;28;20666;-60
2022/04/13 02:14:26;;;;;;;7.33;6.67;;;;;;;7.51;68.83;99888.50;5052397;28;20630;-60
2022/04/13 02:16:52;;;;;;;6.80;6.17;;;;;;;7.51;68.79;99883.22;5052606;28;20200;-60
2022/04/13 02:19:19;;;;;;;7.13;6.13;;;;;;;7.62;68.11;99897.91;5051741;28;20658;-60
2022/04/13 02:21:46;;;;;;;7.00;6.30;;;;;;;7.66;67.98;99891.28;5051659;28;20203;-60
2022/04/13 02:24:14;;;;;;;8.77;7.27;;;;;;;7.68;67.92;99891.97;5051689;28;20192;-60
2022/04/13 02:26:40;;;;;;;7.87;7.10;;;;;;;7.76;67.47;99892.75;5052209;28;20644;-60
2022/04/13 02:29:07;;;;;;;7.33;6.47;;;;;;;7.80;67.65;99895.91;5056762;28;20192;-60
2022/04/13 02:31:35;;;;;;;8.17;6.40;;;;;;;7.85;67.52;99890.94;5058688;28;20445;-60
2022/04/13 02:34:04;;;;;;;7.07;6.53;;;;;;;7.80;68.61;99887.97;5058835;28;20674;-60
2022/04/13 02:36:30;;;;;;;9.90;6.80;;;;;;;7.74;67.85;99888.63;5058257;28;20669;-60
2022/04/13 02:38:57;;;;;;;7.13;6.43;;;;;;;7.73;68.09;99889.63;5058124;28;20612;-60
2022/04/13 02:41:24;;;;;;;7.43;6.80;;;;;;;7.76;69.03;99886.66;5058213;28;20196;-60
2022/04/13 02:43:51;;;;;;;7.00;6.40;;;;;;;7.79;68.27;99886.31;5058069;28;20613;-60
2022/04/13 02:46:17;;;;;;;7.27;6.13;;;;;;;7.79;69.02;99891.59;5058693;28;20273;-61
2022/04/13 02:48:46;;;;;;;9.33;7.13;;;;;;;7.81;68.24;99884.34;5058136;28;20673;-61
2022/04/13 02:51:13;;;;;;;7.70;7.00;;;;;;;7.82;68.53;99888.63;5058165;28;20257;-62
2022/04/13 02:53:39;;;;;;;7.73;7.10;;;;;;;7.78;68.64;99888.16;5058082;28;20743;-61
2022/04/13 02:56:06;;;;;;;11.67;6.83;;;;;;;7.75;68.56;99877.91;5058700;28;20205;-61
2022/04/13 02:58:33;;;;;;;9.43;7.27;;;;;;;7.74;68.46;99873.63;5058314;28;20196;-61
2022/04/13 03:01:00;;;;;;;8.30;7.60;;;;;;;7.73;69.14;99871.13;5058367;28;20188;-61
2022/04/13 03:03:27;;;;;;;7.50;6.77;;;;;;;7.72;69.26;99869.50;5058042;28;20254;-61
2022/04/13 03:05:55;;;;;;;13.10;8.60;;;;;;;7.69;69.00;99869.81;5057881;28;20224;-61
2022/04/13 03:08:22;;;;;;;16.53;8.67;;;;;;;7.63;68.55;99870.50;5058265;28;20200;-60
2022/04/13 03:10:49;;;;;;;9.13;8.23;;;;;;;7.56;68.91;99872.16;5058765;28;20254;-60
2022/04/13 03:13:15;;;;;;;9.47;8.50;;;;;;;7.47;69.15;99871.31;5057841;28;20628;-60
2022/04/13 03:15:42;;;;;;;9.30;8.43;;;;;;;7.42;69.41;99876.31;5058803;28;20231;-60
2022/04/13 03:18:09;;;;;;;14.70;8.53;;;;;;;7.38;69.48;99876.78;5058083;28;20254;-60
2022/04/13 03:20:36;;;;;;;10.63;9.53;;;;;;;7.36;69.01;99878.78;5058169;28;20570;-60
2022/04/13 03:23:04;;;;;;;11.50;9.47;;;;;;;7.35;68.78;99887.72;5058164;28;20262;-60
2022/04/13 03:25:33;;;;;;;9.93;9.03;;;;;;;7.35;68.92;99877.94;5057741;28;20232;-60
2022/04/13 03:28:00;;;;;;;11.33;8.60;;;;;;;7.37;69.75;99885.72;5058005;28;20279;-60
2022/04/13 03:30:27;;;;;;;16.87;10.50;;;;;;;7.32;69.28;99886.22;5058574;28;20193;-60
2022/04/13 03:32:53;;;;;;;10.07;9.20;;;;;;;7.22;69.82;99890.84;5058054;28;20192;-60
2022/04/13 03:35:22;;;;;;;11.87;9.03;;;;;;;7.23;69.84;99896.97;5058304;28;20251;-60
2022/04/13 03:37:49;;;;;;;10.87;9.57;;;;;;;7.27;69.95;99900.91;5057980;28;20196;-61
2022/04/13 03:40:17;;;;;;;10.70;9.63;;;;;;;7.28;70.04;99902.56;5055576;28;20195;-60
2022/04/13 03:42:44;;;;;;;28.53;10.17;;;;;;;7.29;69.93;99914.78;5054519;28;20192;-60
2022/04/13 03:45:12;;;;;;;16.33;11.27;;;;;;;7.26;69.86;99907.19;5054483;28;20628;-61
2022/04/13 03:47:39;;;;;;;17.30;10.57;;;;;;;7.25;69.69;99921.38;5054434;28;20253;-60
2022/04/13 03:50:06;;;;;;;15.43;11.27;;;;;;;7.22;69.90;99919.91;5054335;28;20207;-60
2022/04/13 03:52:33;;;;;;;18.23;11.97;;;;;;;7.26;69.89;99920.41;5054695;28;20195;-60
2022/04/13 03:55:01;;;;;;;20.70;13.40;;;;;;;7.26;70.08;99915.94;5054824;28;20196;-60
2022/04/13 03:57:29;;;;;;;23.20;13.27;;;;;;;7.25;70.88;99916.94;5054572;28;20192;-60
2022/04/13 03:59:56;;;;;;;15.10;11.73;;;;;;;7.27;70.04;99927.34;5054215;28;20195;-60
2022/04/13 04:02:23;;;;;;;19.80;12.60;;;;;;;7.21;70.05;99934.09;5054740;28;20250;-60
2022/04/13 04:04:49;;;;;;;13.53;12.13;;;;;;;7.17;70.64;99932.78;5054454;28;20242;-60
2022/04/13 04:07:16;;;;;;;20.83;11.30;;;;;;;7.26;70.84;99941.56;5055087;28;20270;-60
2022/04/13 04:09:43;;;;;;;18.83;11.43;;;;;;;7.54;69.25;99935.75;5054345;28;20193;-60
2022/04/13 04:12:11;;;;;;;15.23;11.27;;;;;;;7.87;68.22;99944.47;5053985;28;20192;-60
2022/04/13 04:14:39;;;;;;;13.13;10.23;;;;;;;8.08;66.03;99944.78;5053655;28;20224;-60
2022/04/13 04:17:05;;;;;;;14.77;10.77;;;;;;;8.32;65.79;99952.66;5054411;28;20265;-60
2022/04/13 04:19:32;;;;;;;24.73;10.40;;;;;;;8.54;64.03;99951.94;5053863;28;20219;-60
2022/04/13 04:21:59;;;;;;;12.90;10.27;;;;;;;8.66;63.43;99961.16;5053827;28;20681;-60
2022/04/13 04:24:26;;;;;;;11.50;9.30;;;;;;;8.85;62.19;99956.25;5053772;28;20731;-60
2022/04/13 04:26:53;;;;;;;15.10;9.67;;;;;;;9.25;61.92;99968.44;5053946;28;20224;-60
2022/04/13 04:29:19;;;;;;;14.03;9.20;;;;;;;9.76;58.66;99986.28;5054016;28;20197;-60
2022/04/13 04:31:59;;;;;;;13.23;8.47;;;;;;;10.07;56.64;99987.84;5053844;28;20257;-60
2022/04/13 04:34:27;;;;;;;9.50;7.70;;;;;;;10.06;56.52;99985.38;5053647;28;20196;-60
2022/04/13 04:36:53;;;;;;;12.13;8.53;;;;;;;10.11;56.08;99994.44;5053543;28;20633;-61
2022/04/13 04:39:20;;;;;;;10.40;7.37;;;;;;;10.52;54.59;99992.19;5053541;28;20223;-60
2022/04/13 04:41:48;;;;;;;10.27;8.40;;;;;;;10.67;54.05;99995.66;5053446;28;20196;-60
2022/04/13 04:44:14;;;;;;;13.73;8.17;;;;;;;10.77;53.76;99991.72;5053409;28;20655;-60
2022/04/13 04:46:41;;;;;;;11.53;8.17;;;;;;;10.99;52.93;100000.56;5053829;28;20282;-60
2022/04/13 04:49:09;;;;;;;9.77;8.60;;;;;;;11.18;52.41;100004.47;5053096;28;20660;-60
2022/04/13 04:51:36;;;;;;;18.33;9.70;;;;;;;11.39;51.05;99997.34;5053100;28;20197;-60
2022/04/13 04:54:04;;;;;;;14.27;9.17;;;;;;;11.61;50.38;100009.69;5054171;28;20193;-60
2022/04/13 04:56:31;;;;;;;17.73;9.40;;;;;;;11.72;49.90;100005.69;5053143;28;20197;-61
2022/04/13 04:58:58;;;;;;;11.57;8.00;;;;;;;12.09;49.01;100016.84;5053886;28;20647;-60
2022/04/13 05:01:25;;;;;;;14.73;8.60;;;;;;;12.33;48.28;100007.63;5053604;28;20572;-60
2022/04/13 05:03:52;;;;;;;17.80;9.27;;;;;;;12.43;47.88;100016.06;5052955;28;20281;-60
2022/04/13 05:06:23;;;;;;;14.73;9.23;;;;;;;12.53;47.26;100019.25;5053192;28;20226;-61
2022/04/13 05:08:51;;;;;;;23.30;9.57;;;;;;;12.69;46.87;100014.41;5054078;28;20187;-60
2022/04/13 05:11:18;;;;;;;26.40;9.10;;;;;;;12.91;46.05;100018.59;5052895;28;20243;-61
2022/04/13 05:13:45;;;;;;;19.50;8.17;;;;;;;13.16;45.28;100019.78;5052460;28;20203;-61
2022/04/13 05:16:13;;;;;;;13.00;7.43;;;;;;;13.86;44.08;100014.00;5054001;28;20219;-61
2022/04/13 05:18:40;;;;;;;13.83;6.80;;;;;;;14.28;41.76;100008.25;5052843;28;20279;-61
2022/04/13 05:21:07;;;;;;;10.90;6.43;;;;;;;14.24;41.32;100007.88;5052589;28;20666;-61
2022/04/13 05:23:36;;;;;;;11.73;6.30;;;;;;;14.58;41.15;100010.28;5052632;28;20192;-61
2022/04/13 05:26:03;;;;;;;8.10;7.30;;;;;;;15.39;38.88;100009.59;5052753;28;20188;-61
2022/04/13 05:28:30;;;;;;;18.37;5.93;;;;;;;15.42;44.72;100003.81;5052992;28;20192;-66
2022/04/13 05:30:56;;;;;;;12.63;6.43;;;;;;;16.55;41.91;100005.41;5052641;28;20215;-66
2022/04/13 05:33:23;;;;;;;11.73;4.93;;;;;;;17.99;41.29;100008.72;5043139;28;20212;-67
2022/04/13 05:35:50;;;;;;;6.43;5.57;;;;;;;19.08;33.26;100023.06;5050270;28;20220;-63
2022/04/13 05:38:16;;;;;;;8.20;6.67;;;;;;;19.37;31.36;100026.66;5032253;28;20197;-65
2022/04/13 05:40:45;;;;;;;11.57;8.00;;;;;;;18.74;32.45;100020.47;5042647;28;20627;-65
2022/04/13 05:43:12;;;;;;;9.97;5.97;;;;;;;18.38;33.93;100026.09;5032592;28;20256;-62
2022/04/13 05:45:38;;;;;;;12.40;6.67;;;;;;;18.60;34.58;100013.69;5032185;28;20190;-62
2022/04/13 05:48:06;;;;;;;10.60;6.00;;;;;;;18.52;33.91;100024.78;5032160;28;20320;-61
2022/04/13 05:50:32;;;;;;;6.60;5.10;;;;;;;18.25;32.79;100023.59;5048208;28;20202;-62
2022/04/13 05:52:59;;;;;;;10.30;4.87;;;;;;;18.67;34.46;100017.06;5052063;28;20208;-62
2022/04/13 05:55:26;;;;;;;6.30;4.93;;;;;;;19.17;31.93;100013.59;5051999;28;20196;-63
2022/04/13 05:57:54;;;;;;;11.63;4.37;;;;;;;19.28;31.54;100022.72;5052132;28;20263;-62
2022/04/13 06:00:22;;;;;;;4.70;4.30;;;;;;;19.80;31.72;100018.84;5051959;28;20219;-63
2022/04/13 06:02:49;;;;;;;4.83;4.43;;;;;;;19.73;31.02;100029.78;5052092;28;20247;-63
2022/04/13 06:05:15;;;;;;;4.57;4.13;;;;;;;19.81;32.38;100024.00;5051933;28;20197;-62
2022/04/13 06:07:43;;;;;;;9.83;4.40;;;;;;;20.04;32.22;100033.84;5051826;28;20225;-62
2022/04/13 06:10:10;;;;;;;7.67;4.57;;;;;;;20.06;31.51;100026.34;5051795;28;20292;-63
2022/04/13 06:12:37;;;;;;;9.03;3.83;;;;;;;20.41;33.71;100025.06;5052569;28;20196;-65
2022/04/13 06:15:07;;;;;;;8.53;3.83;;;;;;;21.19;32.44;100032.91;5051515;28;20575;-65
2022/04/13 06:17:34;;;;;;;4.63;4.07;;;;;;;21.73;29.09;100031.97;5052054;28;20258;-65
2022/04/13 06:20:02;;;;;;;5.93;3.20;;;;;;;22.46;27.92;100034.78;5052162;28;20192;-65
2022/04/13 06:22:32;;;;;;;3.53;3.33;;;;;;;22.74;27.50;100033.63;5052066;28;20192;-64
2022/04/13 06:24:58;;;;;;;5.80;3.47;;;;;;;23.13;26.62;100033.03;5051486;28;20577;-64
2022/04/13 06:27:25;;;;;;;5.27;3.40;;;;;;;22.69;27.16;100034.41;5051872;28;20221;-64
2022/04/13 06:29:52;;;;;;;12.97;3.57;;;;;;;23.00;26.92;100033.50;5051531;28;20193;-63
2022/04/13 06:32:20;;;;;;;8.77;3.23;;;;;;;23.19;26.12;100040.09;5050972;28;20197;-64
2022/04/13 06:34:47;;;;;;;4.67;3.60;;;;;;;22.89;25.82;100031.81;5051456;28;20196;-63
2022/04/13 06:37:14;;;;;;;3.30;3.00;;;;;;;22.93;26.01;100027.50;5051859;28;20258;-63
2022/04/13 06:39:41;;;;;;;4.13;3.40;;;;;;;22.64;26.05;100037.09;5051226;28;20208;-62
2022/04/13 06:42:09;;;;;;;6.23;2.83;;;;;;;21.49;27.49;100032.47;5048307;28;20211;-64
2022/04/13 06:44:36;;;;;;;3.87;3.40;;;;;;;21.70;28.40;100028.91;5047249;28;20196;-65
2022/04/13 06:47:03;;;;;;;3.77;3.30;;;;;;;21.44;27.60;100027.78;5051821;28;20342;-64
2022/04/13 06:49:31;;;;;;;3.97;3.00;;;;;;;21.98;28.37;100032.19;5051230;28;20246;-64
2022/04/13 06:51:58;;;;;;;2.93;2.60;;;;;;;22.39;27.42;100036.06;5051446;28;20666;-65
2022/04/13 06:54:27;;;;;;;3.50;3.30;;;;;;;22.48;26.83;100035.34;5051680;28;20254;-65
2022/04/13 06:56:53;;;;;;;4.00;3.63;;;;;;;22.39;26.25;100034.16;5051028;28;20197;-65
2022/04/13 06:59:20;;;;;;;3.93;3.13;;;;;;;22.30;27.07;100029.50;5051100;28;20205;-64
2022/04/13 07:01:47;;;;;;;4.87;3.20;;;;;;;22.33;27.47;100035.19;5051078;28;20666;-65
2022/04/13 07:04:14;;;;;;;15.30;3.60;;;;;;;22.54;25.77;100036.19;5051234;28;20189;-63
2022/04/13 07:06:42;;;;;;;11.60;3.60;;;;;;;21.81;26.65;100031.47;5051013;28;20227;-63
2022/04/13 07:09:08;;;;;;;3.70;3.50;;;;;;;21.70;26.96;100032.47;5051486;28;20197;-62
2022/04/13 07:11:35;;;;;;;4.87;3.27;;;;;;;21.61;27.09;100031.25;5051567;28;20254;-63
2022/04/13 07:14:02;;;;;;;4.10;3.73;;;;;;;21.52;27.42;100038.16;5050135;28;20229;-66
2022/04/13 07:16:28;;;;;;;6.20;3.60;;;;;;;21.51;27.54;100041.94;5053094;28;20188;-64
2022/04/13 07:18:55;;;;;;;8.90;3.30;;;;;;;20.75;28.05;100036.63;5054842;28;20188;-64
2022/04/13 07:21:22;;;;;;;17.80;4.37;;;;;;;20.31;29.02;100035.66;5054994;28;20250;-64
2022/04/13 07:23:50;;;;;;;6.23;4.03;;;;;;;20.28;29.54;100032.66;5054586;28;20250;-63
2022/04/13 07:26:16;;;;;;;4.80;3.70;;;;;;;20.39;28.49;100037.16;5054988;28;20250;-63
2022/04/13 07:28:43;;;;;;;4.87;3.70;;;;;;;20.63;27.56;100039.41;5054449;28;20220;-64
2022/04/13 07:31:10;;;;;;;3.93;3.63;;;;;;;20.99;27.69;100032.66;5054556;28;20196;-63
2022/04/13 07:33:37;;;;;;;16.03;4.30;;;;;;;21.16;27.66;100038.00;5054805;28;20247;-63
2022/04/13 07:36:04;;;;;;;5.87;3.57;;;;;;;21.35;28.47;100037.44;5054454;28;20196;-69
2022/04/13 07:38:31;;;;;;;8.23;3.57;;;;;;;21.53;29.86;100029.00;5054463;28;20640;-72
2022/04/13 07:41:01;;;;;;;4.27;3.20;;;;;;;21.99;28.30;100028.41;5036089;28;20735;-72
2022/04/13 07:43:28;;;;;;;3.47;3.17;;;;;;;22.54;27.86;100042.41;5055165;28;20185;-71
2022/04/13 07:45:55;;;;;;;3.80;3.50;;;;;;;21.95;26.42;100037.28;5054169;28;20250;-68
2022/04/13 07:48:21;;;;;;;5.20;3.23;;;;;;;21.70;27.23;100034.31;5054114;28;20684;-70
2022/04/13 07:50:48;;;;;;;10.20;4.00;;;;;;;21.18;28.03;100031.28;5054533;28;20254;-71
2022/04/13 07:53:15;;;;;;;4.87;2.97;;;;;;;21.16;28.14;100027.19;5053973;28;20284;-70
2022/04/13 07:55:42;;;;;;;3.40;3.10;;;;;;;20.77;28.13;100022.84;5053900;28;20201;-70
2022/04/13 07:58:10;;;;;;;23.03;4.50;;;;;;;20.96;29.04;99998.06;5054068;28;20256;-71
2022/04/13 08:00:37;;;;;;;3.20;3.00;;;;;;;21.23;27.99;100027.84;5053733;28;20219;-68
2022/04/13 08:03:04;;;;;;;6.77;3.27;;;;;;;21.18;29.45;100020.47;5054381;28;20201;-69
2022/04/13 08:05:32;;;;;;;4.30;3.90;;;;;;;20.93;27.52;100017.44;5053963;28;20223;-69
2022/04/13 08:07:58;;;;;;;6.97;4.70;;;;;;;20.87;27.74;100017.59;5053977;28;20250;-69
2022/04/13 08:10:26;;;;;;;8.67;4.20;;;;;;;21.20;28.03;100017.53;5054167;28;20246;-71
2022/04/13 08:12:52;;;;;;;6.80;3.30;;;;;;;21.69;28.68;100017.28;5045227;28;20189;-70
2022/04/13 08:15:20;;;;;;;3.97;3.70;;;;;;;21.41;26.36;100020.22;5039374;28;20227;-70
2022/04/13 08:17:47;;;;;;;3.97;3.60;;;;;;;21.21;26.77;100021.84;5054228;28;20197;-70
2022/04/13 08:20:14;;;;;;;5.37;3.70;;;;;;;21.21;27.87;100019.97;5054009;28;20192;-69
2022/04/13 08:22:42;;;;;;;5.03;3.90;;;;;;;21.59;26.55;100017.16;5054575;28;20246;-70
2022/04/13 08:25:10;;;;;;;3.83;3.43;;;;;;;21.60;27.34;100028.81;5053905;28;20258;-70
2022/04/13 08:27:37;;;;;;;14.23;4.17;;;;;;;21.44;26.38;100022.38;5053406;28;20653;-69
2022/04/13 08:30:05;;;;;;;13.93;3.80;;;;;;;21.22;27.95;99999.97;5053566;28;20686;-74
2022/04/13 08:32:33;;;;;;;3.93;3.07;;;;;;;21.72;27.83;100014.06;5054026;28;20285;-71
2022/04/13 08:35:04;;;;;;;6.73;3.63;;;;;;;21.91;25.94;100003.72;5054382;28;20280;-71
2022/04/13 08:37:32;;;;;;;4.67;3.70;;;;;;;22.05;26.62;100002.22;5054104;28;20247;-72
2022/04/13 08:39:58;;;;;;;5.53;3.40;;;;;;;22.34;26.63;100001.63;5053926;28;20196;-70
2022/04/13 08:42:32;;;;;;;8.57;6.07;;;;;;;22.57;24.76;99987.75;5053709;28;20270;-69
2022/04/13 08:45:04;;;;;;;4.40;4.00;;;;;;;22.44;24.86;99999.00;5053260;28;20245;-70
2022/04/13 08:47:37;;;;;;;10.80;5.90;;;;;;;22.34;24.44;99993.50;5053038;28;20278;-70
2022/04/13 08:50:06;;;;;;;4.83;3.27;;;;;;;22.60;24.80;99975.56;5052876;28;20573;-69
2022/04/13 08:52:34;;;;;;;10.80;3.80;;;;;;;23.19;24.40;99985.06;5053412;28;20197;-68
2022/04/13 08:55:05;;;;;;;4.03;3.20;;;;;;;23.02;23.98;99984.44;5053344;28;20636;-68
2022/04/13 08:57:37;;;;;;;6.43;3.00;;;;;;;22.43;24.83;99986.56;5053845;28;20190;-68
2022/04/13 09:00:10;;;;;;;4.90;3.23;;;;;;;22.24;25.55;99977.19;5053086;28;20188;-68
2022/04/13 09:03:06;;;;;;;3.93;3.50;;;;;;;21.95;25.46;99978.59;5053302;28;20196;-69
2022/04/13 09:05:34;;;;;;;18.93;17.40;;;;;;;21.86;26.17;99974.75;5053194;28;20244;-69
2022/04/13 09:08:07;;;;;;;5.03;4.77;;;;;;;22.50;25.45;99964.69;5052408;28;20220;-72
2022/04/13 09:10:34;;;;;;;10.80;5.00;;;;;;;22.82;24.77;99966.22;5052602;28;20181;-70
2022/04/13 09:13:02;;;;;;;6.63;4.17;;;;;;;22.88;25.55;99951.63;5053606;28;20193;-69
2022/04/13 09:15:29;;;;;;;3.67;3.37;;;;;;;22.99;24.87;99955.97;5053045;28;20712;-68
2022/04/13 09:17:56;;;;;;;3.67;3.30;;;;;;;22.93;24.66;99954.34;5053205;28;20198;-69
2022/04/13 09:20:24;;;;;;;7.07;3.03;;;;;;;23.01;24.64;99951.13;5052575;28;20198;-69
2022/04/13 09:22:54;;;;;;;5.87;3.53;;;;;;;22.85;24.48;99952.13;5053151;28;20200;-70
2022/04/13 09:25:22;;;;;;;18.10;3.97;;;;;;;23.19;24.47;99947.91;5052431;28;20197;-69
2022/04/13 09:27:49;;;;;;;7.67;3.57;;;;;;;23.37;23.35;99950.19;5052859;28;20849;-70
2022/04/13 09:30:16;;;;;;;2.80;2.60;;;;;;;23.15;23.70;99937.91;5052711;28;20197;-69
2022/04/13 09:32:44;;;;;;;3.40;3.10;;;;;;;22.80;23.74;99938.56;5053155;28;20192;-68
2022/04/13 09:35:11;;;;;;;4.40;3.10;;;;;;;22.75;24.37;99938.53;5052612;28;20197;-69
2022/04/13 09:37:40;;;;;;;5.00;3.27;;;;;;;23.25;24.92;99929.81;5051988;28;20633;-70
2022/04/13 09:40:07;;;;;;;4.27;2.83;;;;;;;23.37;23.98;99928.50;5053098;28;20252;-78
2022/04/13 09:42:36;;;;;;;3.07;2.80;;;;;;;23.67;24.66;99920.38;5052150;28;20585;-71
2022/04/13 09:45:03;;;;;;;5.13;2.87;;;;;;;23.77;23.96;99919.56;5052485;28;20198;-69
2022/04/13 09:47:31;;;;;;;4.23;2.93;;;;;;;23.80;24.28;99914.41;5052203;28;20226;-69
2022/04/13 09:49:58;;;;;;;4.50;2.73;;;;;;;23.55;24.48;99917.13;5052385;28;20224;-67
2022/04/13 09:52:32;;;;;;;5.00;2.77;;;;;;;23.82;23.92;99911.44;5052549;28;20257;-69
2022/04/13 09:55:00;;;;;;;5.07;3.17;;;;;;;23.80;23.28;99917.13;5052147;28;20671;-70
2022/04/13 09:57:28;;;;;;;6.60;3.07;;;;;;;23.52;23.76;99906.00;5052304;28;20202;-70
2022/04/13 09:59:56;;;;;;;8.40;2.97;;;;;;;23.14;24.77;99901.84;5052326;28;20198;-69
2022/04/13 10:02:36;;;;;;;4.13;2.33;;;;;;;23.13;23.34;99905.63;5051648;28;20193;-68
2022/04/13 10:05:04;;;;;;;7.33;2.50;;;;;;;23.18;23.40;99902.09;5051759;28;20704;-68
2022/04/13 10:07:30;;;;;;;3.93;2.50;;;;;;;23.30;23.12;99900.00;5051706;28;20698;-69
2022/04/13 10:09:57;;;;;;;18.27;3.30;;;;;;;23.28;23.28;99900.25;5052240;28;20194;-68
2022/04/13 10:12:25;;;;;;;3.57;2.50;;;;;;;23.25;23.31;99900.81;5051729;28;20659;-68
2022/04/13 10:14:52;;;;;;;6.63;3.23;;;;;;;23.02;22.98;99892.28;5052027;28;20298;-69
2022/04/13 10:17:20;;;;;;;3.00;2.60;;;;;;;23.03;23.06;99889.31;5051716;28;20712;-67
2022/04/13 10:19:53;;;;;;;3.70;2.57;;;;;;;23.11;22.92;99891.50;5052038;28;20193;-67
2022/04/13 10:22:20;;;;;;;2.73;2.53;;;;;;;22.66;23.84;99888.66;5051746;28;20281;-67
2022/04/13 10:24:47;;;;;;;3.10;2.90;;;;;;;22.46;24.52;99893.97;5051840;28;20189;-66
2022/04/13 10:27:15;;;;;;;2.63;2.53;;;;;;;22.59;24.14;99879.16;5050576;28;20194;-66
2022/04/13 10:29:45;;;;;;;4.50;2.37;;;;;;;22.57;23.47;99886.72;5051525;28;20793;-66
2022/04/13 10:32:13;;;;;;;2.73;2.60;;;;;;;22.80;23.03;99889.00;5051420;28;20758;-67
2022/04/13 10:34:41;;;;;;;4.10;2.70;;;;;;;22.93;23.26;99889.31;5052114;28;20266;-67
2022/04/13 10:37:10;;;;;;;8.70;2.80;;;;;;;22.95;23.08;99881.72;5051508;28;20681;-67
2022/04/13 10:39:38;;;;;;;3.37;2.23;;;;;;;22.54;23.32;99885.34;5052020;28;20252;-67
2022/04/13 10:42:06;;;;;;;9.80;3.17;;;;;;;22.51;23.43;99875.06;5032437;28;20251;-68
2022/04/13 10:44:34;;;;;;;7.33;3.03;;;;;;;22.77;23.13;99873.25;5035373;28;20251;-67
2022/04/13 10:47:04;;;;;;;7.03;3.10;;;;;;;22.92;22.96;99871.44;5051366;28;20243;-67
2022/04/13 10:49:39;;;;;;;2.90;2.57;;;;;;;22.67;22.90;99863.19;5052197;28;20212;-67
2022/04/13 10:52:10;;;;;;;2.93;2.73;;;;;;;22.39;22.78;99866.31;5055737;28;20200;-69
2022/04/13 10:54:39;;;;;;;2.33;2.23;;;;;;;22.34;23.61;99868.97;5055525;28;20720;-68
2022/04/13 10:57:07;;;;;;;4.20;2.20;;;;;;;22.15;25.21;99856.97;5055637;28;20192;-67
2022/04/13 10:59:43;;;;;;;2.60;2.37;;;;;;;22.25;23.10;99865.16;5055979;28;20250;-69
2022/04/13 11:02:25;;;;;;;3.20;2.90;;;;;;;22.36;22.92;99861.41;5055264;28;20246;-69
2022/04/13 11:04:54;;;;;;;5.53;2.63;;;;;;;22.57;22.32;99849.63;5055543;28;20627;-68
2022/04/13 11:07:23;;;;;;;2.87;2.43;;;;;;;22.44;23.32;99847.38;5056053;28;20566;-69
2022/04/13 11:09:52;;;;;;;2.57;2.37;;;;;;;22.61;24.13;99845.31;5055170;28;20220;-69
2022/04/13 11:12:19;;;;;;;3.10;2.80;;;;;;;22.73;23.77;99840.47;5055537;28;20247;-71
2022/04/13 11:14:50;;;;;;;5.40;2.50;;;;;;;22.63;24.33;99826.91;5055298;28;20282;-68
2022/04/13 11:17:28;;;;;;;2.27;2.10;;;;;;;22.67;24.27;99836.09;5055098;28;20181;-69
2022/04/13 11:20:20;;;;;;;2.50;2.20;;;;;;;22.63;23.48;99835.03;5055225;28;20646;-67
2022/04/13 11:23:06;;;;;;;2.30;2.10;;;;;;;22.73;23.36;99829.66;5054279;28;20254;-69
2022/04/13 11:25:58;;;;;;;7.17;2.90;;;;;;;22.63;23.73;99824.22;5054303;28;20184;-71
2022/04/13 11:28:27;;;;;;;5.17;2.50;;;;;;;22.91;25.52;99821.00;5058131;28;20224;-69
2022/04/13 11:31:01;;;;;;;2.33;2.10;;;;;;;23.44;24.77;99814.34;5074691;28;20192;-72
2022/04/13 11:33:42;;;;;;;4.90;2.57;;;;;;;23.41;23.36;99820.28;5075285;28;20280;-69